Overview Statistics Trail Chart Weather Telemetry Raw packets
 

This is the latest recevied weather packets stored in our database for station/object OE5MMP-13. If no packets are shown the sender has not sent any weather packets the latest 10 day(s).

<< 19 20 21 22 23 24 25 >>
Time Temp. Humidity Pressure Rain* Wind** Luminosity Snow
1788380593 18.33° C 66% 1021.9 hPa 0 mm - 0 W/m² -
1788379992 18.33° C 67% 1022 hPa 0 mm - 0 W/m² -
1788379392 18.33° C 67% 1022 hPa 0 mm - 0 W/m² -
1788378792 18.33° C 67% 1022 hPa 0 mm - 0 W/m² -
1788378191 18.33° C 68% 1021.9 hPa 0 mm - 0 W/m² -
1788377592 17.78° C 70% 1021.9 hPa 0 mm - 0 W/m² -
1788376991 17.78° C 70% 1021.8 hPa 0 mm - 0 W/m² -
1788376391 17.78° C 71% 1021.9 hPa 0 mm - 0 W/m² -
1788375791 17.78° C 70% 1021.8 hPa 0 mm - 0 W/m² -
1788375191 17.78° C 70% 1021.7 hPa 0 mm - 0 W/m² -
1788374591 17.78° C 70% 1021.4 hPa 0 mm - 0 W/m² -
1788373991 18.33° C 70% 1021.4 hPa 0 mm - 0 W/m² -
1788373392 18.33° C 70% 1021 hPa 0 mm - 0 W/m² -
1788372791 17.78° C 70% 1020.8 hPa 0 mm - 0 W/m² -
1788372191 18.33° C 70% 1020.6 hPa 0 mm - 0 W/m² -
1788371591 18.89° C 70% 1020.5 hPa 0 mm - 0 W/m² -
1788370991 18.89° C 69% 1020.3 hPa 0 mm - 6 W/m² -
1788370391 19.44° C 68% 1020.3 hPa 0 mm - 12 W/m² -
1788369791 19.44° C 67% 1020.3 hPa 0 mm - 18 W/m² -
1788369191 20.56° C 64% 1020.4 hPa 0 mm - 26 W/m² -
1788368592 21.67° C 61% 1020.6 hPa 0 mm - 34 W/m² -
1788367996 21.67° C 59% 1020.5 hPa 0 mm - 42 W/m² -
1788367396 22.22° C 57% 1020.4 hPa 0 mm - 45 W/m² -
1788366795 22.22° C 57% 1020.4 hPa 0 mm - 58 W/m² -
1788366196 22.78° C 56% 1020.4 hPa 0 mm - 67 W/m² -

* Rain latest hour (hover to see other rain measurements)
** Current wind speed in m/s (hover to see current wind gust speed)